DLH3590 LIRZ-LEAL
Flight info
| Callsign | DLH3590 |
|---|---|
| Flight time | N/A |
| Altitude | 41000 |
| Route | GITOD / IBROS / GINOX / LUNOR / UN851 ISTER / N851 MHN / M603 GERVU |
| Aircraft | A359/H-SDE2E3FGHIRWY/LB1 |
Departure
| Time | 2026-04-28 19:45 |
|---|---|
| Airport | Perugia San Francesco d'Assisi – Umbria International Airport (LIRZ) |
Arrival
| Time | N/A |
|---|---|
| Airport | Alicante-Elche Miguel Hernández Airport (LEAL) |
| Time | Latitude | Longitude | Altitude | Speed | Heading |
|---|---|---|---|---|---|
| 2026-04-28 18:49 | 43.09517 | 12.50397 | 675 ft | 0 kts | 249° |
| 2026-04-28 19:36 | 43.09520 | 12.50359 | 675 ft | 10 kts | 284° |
| 2026-04-28 19:36 | 43.09523 | 12.50355 | 675 ft | 0 kts | 298° |
| 2026-04-28 19:37 | 43.09519 | 12.50364 | 675 ft | 2 kts | 293° |
| 2026-04-28 19:37 | 43.09516 | 12.50378 | 675 ft | 2 kts | 277° |
| 2026-04-28 19:37 | 43.09506 | 12.50399 | 675 ft | 2 kts | 33° |
| 2026-04-28 19:37 | 43.09504 | 12.50397 | 675 ft | 0 kts | 34° |
| 2026-04-28 19:38 | 43.09505 | 12.50398 | 675 ft | 0 kts | 34° |
| 2026-04-28 19:38 | 43.09505 | 12.50399 | 675 ft | 0 kts | 36° |
| 2026-04-28 19:38 | 43.09535 | 12.50453 | 673 ft | 10 kts | 60° |
| 2026-04-28 19:39 | 43.09572 | 12.50555 | 675 ft | 13 kts | 65° |
| 2026-04-28 19:39 | 43.09613 | 12.50679 | 675 ft | 16 kts | 65° |
| 2026-04-28 19:39 | 43.09662 | 12.50825 | 675 ft | 18 kts | 65° |
| 2026-04-28 19:39 | 43.09714 | 12.50984 | 675 ft | 15 kts | 66° |
| 2026-04-28 19:40 | 43.09768 | 12.51117 | 675 ft | 16 kts | 48° |
| 2026-04-28 19:40 | 43.09869 | 12.51187 | 675 ft | 17 kts | 14° |
| 2026-04-28 19:40 | 43.09992 | 12.51229 | 675 ft | 19 kts | 14° |
| 2026-04-28 19:40 | 43.10130 | 12.51277 | 676 ft | 22 kts | 14° |
| 2026-04-28 19:41 | 43.10283 | 12.51330 | 676 ft | 24 kts | 14° |
| 2026-04-28 19:41 | 43.10449 | 12.51388 | 674 ft | 26 kts | 14° |
| 2026-04-28 19:41 | 43.10609 | 12.51444 | 676 ft | 2 kts | 14° |
| 2026-04-28 19:42 | 43.10645 | 12.51456 | 676 ft | 23 kts | 14° |
| 2026-04-28 19:43 | 43.10770 | 12.51563 | 674 ft | 11 kts | 84° |
| 2026-04-28 19:43 | 43.10759 | 12.51674 | 675 ft | 13 kts | 117° |
| 2026-04-28 19:43 | 43.10709 | 12.51703 | 675 ft | 0 kts | 187° |
| 2026-04-28 19:44 | 43.10573 | 12.51665 | 676 ft | 65 kts | 194° |
| 2026-04-28 19:44 | 43.09789 | 12.51391 | 675 ft | 164 kts | 194° |
| 2026-04-28 19:45 | 43.08437 | 12.50913 | 841 ft | 233 kts | 194° |
| 2026-04-28 19:45 | 43.06675 | 12.50283 | 1376 ft | 288 kts | 195° |
| 2026-04-28 19:45 | 43.04584 | 12.49498 | 1949 ft | 339 kts | 195° |
| 2026-04-28 19:45 | 43.02071 | 12.48561 | 673 ft | 418 kts | 195° |
| 2026-04-28 19:46 | 43.00690 | 12.48297 | 1922 ft | 187 kts | 178° |
| 2026-04-28 19:46 | 42.99161 | 12.48626 | 2123 ft | 264 kts | 166° |